Latest Coastal Weather Observations for Ulladulla

IDN60701

Issued at 6:11 am EST Sunday 2 August 2015 (issued every 10 minutes, with the page automatically refreshed every 10 minutes)

About coastal observations | Map of coastal stations | Coastal observations for NSW | Marine services | Other Formats
Station Details ID: 069138 Name: ULLADULLA AWS Lat: -35.36 Lon: 150.48 Height: 35.7 m
Data from the previous 72 hours. | See also: Recent months at Ulladulla
Date/Time
EST
Temp

°C
Wind Pressure Rain
since 9am
mm
Weather Cloud Vis
km
Sea
Height
m
Swell
Dir
 
Speed
knots
Gust
knots
hPa Trend Height
m
Period
s
Dir
02/06:00am 11.8 NW 4 7 1013.9 - 8.6 Recent precip. - - - - - -
02/05:30am 11.8 NNW 2 4 1014.0 - 8.6 - - - - - - -
02/05:00am 12.3 NW 3 7 1014.7 - 8.0 - - - - - - -
02/04:30am 12.6 N 3 5 1014.3 - 8.0 - - - - - - -
02/04:00am 13.3 N 6 10 1015.3 - 7.6 - - - - - - -
02/03:30am 12.9 NNE 3 5 1015.2 - 7.6 - - - - - - -
02/03:00am 12.4 ESE 2 3 1015.1 - 7.6 Recent precip. - - - - - -
02/02:30am 12.6 ESE 1 5 1015.8 - 7.4 - - - - - - -
02/02:00am 12.8 SE 2 3 1016.3 - 5.6 - - - - - - -
02/01:30am 12.7 SE 1 3 1016.2 - 4.0 - - - - - - -
02/01:00am 12.6 SE 1 3 1016.7 - 2.8 - - - - - - -
02/12:30am 12.7 SE 2 4 1016.7 - 0.2 - - - - - - -
02/12:00am 13.1 SE 1 3 1017.2 - 0.0 - - - - - - -
 
Date/Time
EST
Temp

°C
Wind Pressure Rain
since 9am
mm
Weather Cloud Vis
km
Sea
Height
m
Swell
Dir
 
Speed
knots
Gust
knots
hPa Trend Height
m
Period
s
Dir
01/11:30pm 13.5 SE 1 2 1016.9 - 0.0 - - - - - - -
01/11:00pm 13.4 SE 5 8 1016.6 - 0.0 - - - - - - -
01/10:30pm 13.4 S 7 10 1016.8 - 0.0 - - - - - - -
01/10:00pm 13.7 S 8 11 1017.0 - 0.0 - - - - - - -
01/09:30pm 13.8 S 11 13 1016.9 - 0.0 - - - - - - -
01/09:00pm 13.8 S 9 13 1016.8 - 0.0 - - - - - - -
01/08:30pm 14.1 SSW 10 15 1017.4 - 0.0 - - - - - - -
01/08:00pm 14.5 SSW 11 17 1016.9 - 0.0 - - - - - - -
01/07:30pm 16.9 WNW 8 12 1015.6 - 0.0 - - - - - - -
01/07:00pm 17.1 WNW 6 10 1015.2 - 0.0 - - - - - - -
01/06:30pm 17.5 WNW 7 11 1015.0 - 0.0 - - - - - - -
01/06:00pm 17.5 WNW 4 8 1014.5 - 0.0 - - - - - - -
01/05:30pm 18.0 WNW 5 11 1013.9 - 0.0 - - - - - - -
01/05:00pm 18.8 WNW 8 11 1013.0 - 0.0 - - - - - - -
01/04:30pm 19.2 NNW 6 9 1012.4 - 0.0 - - - - - - -
01/04:00pm 20.1 NW 6 9 1012.0 - 0.0 - - - - - - -
01/03:30pm 20.9 WNW 5 10 1012.1 - 0.0 - - - - - - -
01/03:00pm 20.7 W 6 11 1012.5 - 0.0 - - - - - - -
01/02:30pm 19.6 NW 9 15 1012.6 - 0.0 - - - - - - -
01/02:00pm 19.8 NW 9 20 1012.1 - 0.0 - - - - - - -
01/01:30pm 19.1 NW 8 13 1011.9 - 0.0 - - - - - - -
01/01:00pm 18.5 NNW 9 14 1012.0 - 0.0 - - - - - - -
01/12:30pm 18.9 N 10 18 1012.3 - 0.0 - - - - - - -
01/12:00pm 18.3 N 10 16 1012.8 - 0.0 - - - - - - -
01/11:30am 17.1 N 11 17 1013.7 - 0.0 - - - - - - -
01/11:00am 16.8 N 9 15 1014.4 - 0.0 - - - - - - -
01/10:30am 16.5 N 6 11 1015.1 - 0.0 - - - - - - -
01/10:00am 16.1 NW 11 18 1015.3 - 0.0 - - - - - - -
01/09:30am 15.2 NW 13 19 1014.9 - 0.0 - - - - - - -
01/09:00am 15.1 NW 16 27 1014.3 - 0.0 - - - - - - -
01/08:51am 15.1 NW 16 27 1014.4 - 0.0 - - - - - - -
01/08:30am 15.1 NW 15 24 1014.8 - 0.0 - - - - - - -
01/08:00am 15.4 NW 14 22 1015.6 - 0.0 - - - - - - -
01/07:30am 15.8 WNW 11 17 1015.5 - 0.0 - - - - - - -
01/07:00am 15.9 WNW 11 18 1014.6 - 0.0 - - - - - - -
01/06:30am 15.7 WNW 13 29 1014.5 - 0.0 - - - - - - -
01/06:07am 15.6 WNW 15 29 1013.9 - 0.0 - - - - - - -
01/06:00am 15.7 WNW 12 21 1013.9 - 0.0 - - - - - - -
01/05:59am 15.7 WNW 13 21 1013.9 - 0.0 - - - - - - -
01/05:30am 13.7 NW 4 7 1014.1 - 0.0 - - - - - - -
01/05:00am 13.5 N 7 15 1014.1 - 0.0 - - - - - - -
01/04:30am 13.1 N 8 15 1014.3 - 0.0 - - - - - - -
01/04:00am 12.4 NNW 6 14 1015.0 - 0.0 - - - - - - -
01/03:30am 11.6 N 4 8 1015.6 - 0.0 - - - - - - -
01/03:00am 12.5 N 8 11 1016.2 - 0.0 - - - - - - -
01/02:30am 12.3 N 6 11 1016.7 - 0.0 - - - - - - -
01/02:00am 12.3 NNW 7 12 1017.3 - 0.0 - - - - - - -
01/01:30am 11.6 N 7 11 1017.3 - 0.0 - - - - - - -
01/01:00am 12.1 N 8 13 1017.8 - 0.0 - - - - - - -
01/12:30am 12.1 N 7 11 1017.8 - 0.0 - - - - - - -
01/12:00am 12.4 NNW 6 11 1018.6 - 0.0 - - - - - - -
 
Date/Time
EST
Temp

°C
Wind Pressure Rain
since 9am
mm
Weather Cloud Vis
km
Sea
Height
m
Swell
Dir
 
Speed
knots
Gust
knots
hPa Trend Height
m
Period
s
Dir
31/11:30pm 12.3 NNW 5 9 1019.2 - 0.0 - - - - - - -
31/11:00pm 11.0 N 5 7 1019.8 - 0.0 - - - - - - -
31/10:30pm 11.7 N 4 7 1020.1 - 0.0 - - - - - - -
31/10:00pm 11.1 NNW 4 6 1020.3 - 0.0 - - - - - - -
31/09:30pm 10.8 NNW 4 6 1020.5 - 0.0 - - - - - - -
31/09:00pm 11.2 NNW 5 7 1020.4 - 0.0 - - - - - - -
31/08:30pm 11.2 NNW 4 6 1020.3 - 0.0 - - - - - - -
31/08:00pm 10.9 NW 4 5 1020.2 - 0.0 - - - - - - -
31/07:30pm 11.7 N 3 4 1020.1 - 0.0 - - - - - - -
31/07:00pm 12.5 NNW 4 7 1020.4 - 0.0 - - - - - - -
31/06:30pm 13.7 NNW 5 9 1020.1 - 0.0 - - - - - - -
31/06:00pm 13.7 NE 8 11 1019.9 - 0.0 - - - - - - -
31/05:30pm 13.7 NE 6 11 1019.9 - 0.0 - - - - - - -
31/05:00pm 13.5 NE 4 8 1019.9 - 0.0 - - - - - - -
31/04:30pm 13.7 NE 4 6 1019.5 - 0.0 - - - - - - -
31/04:00pm 14.4 ENE 3 6 1019.5 - 0.0 - - - - - - -
31/03:30pm 14.8 NE 3 5 1019.8 - 0.0 - - - - - - -
31/03:00pm 14.9 E 3 7 1019.7 - 0.0 - - - - - - -
31/02:30pm 15.4 E 4 6 1019.5 - 0.0 - - - - - - -
31/02:00pm 15.3 SE 5 8 1019.7 - 0.0 - - - - - - -
31/01:30pm 15.6 SE 5 9 1019.7 - 0.0 - - - - - - -
31/01:00pm 15.6 SE 5 9 1019.8 - 0.0 - - - - - - -
31/12:30pm 15.5 SSE 7 11 1020.0 - 0.0 - - - - - - -
31/12:00pm 15.3 SSE 8 11 1020.4 - 0.0 - - - - - - -
31/11:30am 14.7 S 7 13 1020.6 - 0.0 - - - - - - -
31/11:00am 16.4 WSW 2 3 1020.5 - 0.0 - - - - - - -
31/10:30am 17.2 W 5 9 1020.5 - 0.0 - - - - - - -
31/10:00am 16.9 WSW 3 7 1020.3 - 0.0 - - - - - - -
31/09:30am 16.0 WSW 5 9 1020.1 - 0.0 - - - - - - -
31/09:00am 14.9 WNW 4 9 1019.9 - 0.0 - - - - - - -
31/08:30am 13.8 WNW 6 12 1019.8 - 0.0 - - - - - - -
31/08:00am 13.0 WNW 8 13 1019.6 - 0.0 - - - - - - -
31/07:30am 12.4 WNW 7 11 1019.1 - 0.0 - - - - - - -
31/07:00am 12.4 WNW 8 13 1018.6 - 0.0 - - - - - - -
31/06:30am 12.1 WNW 6 13 1018.3 - 0.0 - - - - - - -
31/06:00am 11.9 W 8 15 1017.6 - 0.0 - - - - - - -
31/05:30am 12.0 WNW 10 15 1016.8 - 0.0 - - - - - - -
31/05:00am 11.9 NW 10 15 1017.3 - 0.0 - - - - - - -
31/04:30am 11.9 NW 8 13 1017.2 - 0.0 - - - - - - -
31/04:00am 12.6 WNW 8 17 1016.9 - 0.0 - - - - - - -
31/03:30am 13.0 NW 10 18 1016.9 - 0.0 - - - - - - -
31/03:00am 13.3 WNW 9 17 1017.0 - 0.0 - - - - - - -
31/02:30am 13.3 W 10 17 1017.3 - 0.0 - - - - - - -
31/02:00am 13.5 W 13 25 1017.2 - 0.0 - - - - - - -
31/01:30am 13.8 WNW 14 26 1016.7 - 0.0 - - - - - - -
31/01:23am 13.8 WNW 15 26 1016.6 - 0.0 - - - - - - -
31/01:00am 13.8 NW 12 19 1016.3 - 0.0 - - - - - - -
31/12:30am 14.1 NW 9 15 1016.4 - 0.0 - - - - - - -
31/12:00am 14.3 NW 14 27 1016.1 - 0.0 - - - - - - -
 
Date/Time
EST
Temp

°C
Wind Pressure Rain
since 9am
mm
Weather Cloud Vis
km
Sea
Height
m
Swell
Dir
 
Speed
knots
Gust
knots
hPa Trend Height
m
Period
s
Dir
30/11:30pm 14.1 NW 6 15 1016.6 - 0.0 - - - - - - -
30/11:00pm 14.1 W 5 12 1017.2 - 0.0 - - - - - - -
30/10:30pm 14.4 WNW 9 18 1016.9 - 0.0 - - - - - - -
30/10:00pm 13.8 SW 3 6 1016.5 - 0.0 - - - - - - -
30/09:30pm 13.8 NW 1 5 1016.3 - 0.0 - - - - - - -
30/09:00pm 14.1 WSW 3 7 1016.4 - 0.0 - - - - - - -
30/08:30pm 14.2 SSE 1 3 1015.9 - 0.0 - - - - - - -
30/08:00pm 14.8 NNW 5 9 1015.0 - 0.0 - - - - - - -
30/07:30pm 14.6 NW 4 11 1016.2 - 0.0 - - - - - - -
30/07:00pm 14.9 NW 8 16 1016.3 - 0.0 - - - - - - -
30/06:30pm 14.8 NW 7 17 1016.6 - 0.0 - - - - - - -
30/06:00pm 14.9 NW 8 18 1016.7 - 0.0 - - - - - - -
30/05:30pm 15.1 NW 7 15 1016.6 - 0.0 - - - - - - -
30/05:00pm 15.3 NW 7 13 1016.3 - 0.0 - - - - - - -
30/04:30pm 15.2 NW 4 8 1016.4 - 0.0 - - - - - - -
30/04:00pm 15.9 NW 7 16 1016.4 - 0.0 - - - - - - -
30/03:30pm 16.7 CALM 0 1 1016.9 - 0.0 - - - - - - -
30/03:00pm 16.7 NW 3 8 1017.6 - 0.0 - - - - - - -
30/02:30pm 17.5 SSE 2 4 1017.7 - 0.0 - - - - - - -
30/02:00pm 18.3 NW 5 9 1018.3 - 0.0 - - - - - - -
30/01:30pm 17.9 N 6 10 1018.8 - 0.0 - - - - - - -
30/01:00pm 17.0 NW 8 12 1019.3 - 0.0 - - - - - - -
30/12:30pm 17.8 NW 8 14 1019.8 - 0.0 - - - - - - -
30/12:00pm 17.7 WNW 7 12 1020.4 - 0.0 - - - - - - -
30/11:30am 16.9 NW 7 12 1020.7 - 0.0 - - - - - - -
30/11:00am 16.0 NW 5 9 1021.4 - 0.0 - - - - - - -
30/10:30am 15.3 NNW 5 9 1022.3 - 0.0 - - - - - - -
30/10:00am 14.2 N 7 12 1022.9 - 0.0 - - - - - - -
30/09:30am 12.7 N 6 10 1023.3 - 0.0 - - - - - - -
30/09:00am 12.4 N 6 11 1023.9 - 0.0 - - - - - - -
30/08:30am 11.5 N 7 12 1024.2 - 0.0 - - - - - - -
30/08:00am 10.6 NNW 4 6 1024.5 - 0.0 - - - - - - -
30/07:30am 9.7 N 5 9 1024.5 - 0.0 - - - - - - -
30/07:00am 9.2 N 5 7 1024.3 - 0.0 - - - - - - -
30/06:30am 9.6 NNW 4 5 1024.4 - 0.0 - - - - - - -

Other Formats:

Comma delimited format used in spreadsheet applications
http://www.bom.gov.au/fwo/IDN60701/IDN60701.94938.axf

JavaScript Object Notation format (JSON) in row-major order
http://www.bom.gov.au/fwo/IDN60701/IDN60701.94938.json